Bedford, Michigan
Current Conditions -  °F | °C
As of 5:08 AM on Friday 19 Dec 2014 (Local Time) from KBTL Reporting Station
Haze Haze  
Wind Chill: -2°   Ceiling: 1400
Heat Index: -2°   Visibility: 5mi
Dew Point: -3°   Wind: 3mph
Humidity: 89%   Direction: 290°WNW
Pressure: 30.21"   Gusts: NA
Location:  42.4°N, 85.23°W
Report Text: KBTL 191008Z 29003KT 5SM BR FEW006 OVC014 M02/M03 A3021 RMK AO2 T10171033
Loading
Personal Weather Stations






























Interactive Weather Map New forecast layout! Learn more

10-Day Weather Forecast

Advertisements
Track Severe Weather on mobile